createdAt,value
2022-10-11T00:00:46.400Z,5.30
2022-10-11T00:03:13.016Z,4.67
2022-10-11T00:05:39.534Z,4.67
2022-10-11T00:08:06.070Z,4.23
2022-10-11T00:10:32.645Z,4.70
2022-10-11T00:12:59.129Z,4.43
2022-10-11T00:15:25.655Z,4.83
2022-10-11T00:17:52.210Z,4.60
2022-10-11T00:20:18.727Z,4.53
2022-10-11T00:22:45.247Z,5.10
2022-10-11T00:25:11.774Z,4.23
2022-10-11T00:27:38.341Z,4.23
2022-10-11T00:30:04.822Z,4.77
2022-10-11T00:32:31.333Z,4.30
2022-10-11T00:34:57.817Z,5.70
2022-10-11T00:37:24.351Z,4.37
2022-10-11T00:39:50.904Z,3.80
2022-10-11T00:42:17.370Z,4.47
2022-10-11T00:44:43.846Z,4.13
2022-10-11T00:47:10.371Z,3.70
2022-10-11T00:49:36.899Z,3.80
2022-10-11T00:52:03.448Z,3.90
2022-10-11T00:54:29.967Z,3.43
2022-10-11T00:56:56.697Z,3.73
2022-10-11T00:59:30.243Z,3.77
2022-10-11T01:01:56.788Z,4.00
2022-10-11T01:04:23.262Z,4.03
2022-10-11T01:06:49.791Z,3.50
2022-10-11T01:09:16.317Z,3.60
2022-10-11T01:11:42.829Z,3.70
2022-10-11T01:14:09.373Z,3.93
2022-10-11T01:16:35.886Z,3.70
2022-10-11T01:19:02.365Z,4.07
2022-10-11T01:21:28.898Z,3.60
2022-10-11T01:23:55.419Z,4.70
2022-10-11T01:26:21.922Z,4.90
2022-10-11T01:28:48.462Z,3.60
2022-10-11T01:31:15.296Z,3.57
2022-10-11T01:33:41.846Z,3.20
2022-10-11T01:36:08.761Z,3.50
2022-10-11T01:38:35.318Z,3.27
2022-10-11T01:41:01.889Z,3.13
2022-10-11T01:43:28.396Z,2.90
2022-10-11T01:45:54.930Z,3.57
2022-10-11T01:48:21.425Z,3.37
2022-10-11T01:50:47.989Z,3.20
2022-10-11T01:53:14.464Z,3.33
2022-10-11T01:55:40.976Z,3.57
2022-10-11T01:58:07.507Z,3.03
2022-10-11T02:00:33.990Z,3.17
2022-10-11T02:03:00.529Z,3.43
2022-10-11T02:05:27.004Z,3.30
2022-10-11T02:07:53.478Z,3.50
2022-10-11T02:10:20.034Z,3.20
2022-10-11T02:12:46.549Z,3.13
2022-10-11T02:15:13.058Z,3.20
2022-10-11T02:17:39.614Z,3.20
2022-10-11T02:20:06.126Z,3.60
2022-10-11T02:22:32.659Z,2.73
2022-10-11T02:24:59.200Z,3.33
2022-10-11T02:27:25.739Z,3.10
2022-10-11T02:29:52.253Z,2.90
2022-10-11T02:32:18.798Z,3.00
2022-10-11T02:34:45.322Z,2.93
2022-10-11T02:37:11.850Z,2.80
2022-10-11T02:39:38.404Z,2.97
2022-10-11T02:42:04.923Z,3.10
2022-10-11T02:44:31.433Z,2.60
2022-10-11T02:46:57.969Z,3.83
2022-10-11T02:49:24.477Z,2.83
2022-10-11T02:51:50.998Z,2.90
2022-10-11T02:54:17.505Z,3.17
2022-10-11T02:56:44.038Z,2.60
2022-10-11T02:59:10.544Z,2.80
2022-10-11T03:01:37.095Z,2.60
2022-10-11T03:04:03.653Z,2.73
2022-10-11T03:06:30.172Z,2.30
2022-10-11T03:08:56.693Z,2.53
2022-10-11T03:11:23.203Z,2.50
2022-10-11T03:13:49.704Z,2.10
2022-10-11T03:16:16.230Z,2.60
2022-10-11T03:18:42.765Z,2.87
2022-10-11T03:21:09.316Z,2.13
2022-10-11T03:23:35.829Z,2.73
2022-10-11T03:26:02.749Z,2.70
2022-10-11T03:28:29.529Z,2.93
2022-10-11T03:30:56.110Z,2.77
2022-10-11T03:33:22.646Z,2.53
2022-10-11T03:35:49.153Z,2.70
2022-10-11T03:38:15.646Z,2.30
2022-10-11T03:40:42.183Z,2.47
2022-10-11T03:43:08.689Z,2.60
2022-10-11T03:45:35.244Z,2.87
2022-10-11T03:48:01.718Z,2.83
2022-10-11T03:50:28.225Z,2.80
2022-10-11T03:52:54.756Z,2.70
2022-10-11T03:55:21.269Z,2.63
2022-10-11T03:57:47.779Z,2.30
2022-10-11T04:00:14.305Z,2.53
2022-10-11T04:02:40.808Z,2.40
2022-10-11T04:05:07.326Z,2.27
2022-10-11T04:07:33.869Z,2.87
2022-10-11T04:10:00.377Z,3.00
2022-10-11T04:12:26.897Z,2.97
2022-10-11T04:14:53.420Z,2.87
2022-10-11T04:17:19.892Z,2.60
2022-10-11T04:19:46.575Z,2.33
2022-10-11T04:22:13.091Z,2.80
2022-10-11T04:24:39.641Z,2.50
2022-10-11T04:27:06.149Z,2.60
2022-10-11T04:29:33.025Z,2.57
2022-10-11T04:31:59.629Z,2.67
2022-10-11T04:34:26.164Z,2.37
2022-10-11T04:36:52.680Z,3.83
2022-10-11T04:39:19.210Z,3.87
2022-10-11T04:41:45.693Z,3.37
2022-10-11T04:44:12.228Z,3.13
2022-10-11T04:46:38.725Z,2.93
2022-10-11T04:49:05.249Z,3.13
2022-10-11T04:51:31.804Z,3.40
2022-10-11T04:53:58.272Z,3.97
2022-10-11T04:56:24.749Z,3.47
2022-10-11T04:58:51.274Z,3.97
2022-10-11T05:01:17.822Z,4.70
2022-10-11T05:03:44.332Z,4.90
2022-10-11T05:06:11.224Z,4.30
2022-10-11T05:08:37.961Z,3.57
2022-10-11T05:11:04.474Z,3.13
2022-10-11T05:13:30.988Z,3.30
2022-10-11T05:15:57.500Z,3.13
2022-10-11T05:18:24.022Z,3.13
2022-10-11T05:20:50.528Z,5.03
2022-10-11T05:23:17.062Z,6.00
2022-10-11T05:25:43.585Z,5.50
2022-10-11T05:28:10.374Z,5.73
2022-10-11T05:30:36.957Z,4.70
2022-10-11T05:33:03.424Z,4.40
2022-10-11T05:35:29.945Z,3.13
2022-10-11T05:37:56.477Z,4.93
2022-10-11T05:40:22.997Z,4.50
2022-10-11T05:42:49.510Z,5.80
2022-10-11T05:45:16.066Z,4.90
2022-10-11T05:47:42.590Z,3.20
2022-10-11T05:50:09.097Z,2.97
2022-10-11T05:52:35.640Z,3.20
2022-10-11T05:55:02.261Z,3.03
2022-10-11T05:57:28.795Z,2.60
2022-10-11T05:59:55.334Z,2.67
2022-10-11T06:02:21.883Z,3.03
2022-10-11T06:04:48.393Z,2.60
2022-10-11T06:07:14.870Z,2.80
2022-10-11T06:09:41.416Z,3.47
2022-10-11T06:12:07.926Z,2.90
2022-10-11T06:14:34.396Z,3.00
2022-10-11T06:17:00.932Z,3.27
2022-10-11T06:19:27.448Z,3.97
2022-10-11T06:21:53.971Z,3.30
2022-10-11T06:24:20.699Z,4.07
2022-10-11T06:26:47.208Z,4.30
2022-10-11T06:29:13.722Z,3.80
2022-10-11T06:31:40.234Z,4.17
2022-10-11T06:34:06.749Z,3.60
2022-10-11T06:36:33.259Z,3.70
2022-10-11T06:38:59.797Z,3.47
2022-10-11T06:41:26.309Z,4.50
2022-10-11T06:43:52.776Z,4.37
2022-10-11T06:46:19.326Z,3.63
2022-10-11T06:48:45.847Z,3.77
2022-10-11T06:51:12.314Z,3.90
2022-10-11T06:53:38.798Z,3.73
2022-10-11T06:56:05.560Z,3.70
2022-10-11T06:58:32.292Z,3.33
2022-10-11T07:00:58.871Z,3.53
2022-10-11T07:03:25.430Z,3.23
2022-10-11T07:05:51.986Z,3.73
2022-10-11T07:08:18.494Z,3.20
2022-10-11T07:10:44.977Z,4.20
2022-10-11T07:13:16.247Z,4.20
2022-10-11T07:15:43.650Z,4.13
2022-10-11T07:18:10.166Z,4.30
2022-10-11T07:20:36.706Z,4.40
2022-10-11T07:23:03.208Z,5.47
2022-10-11T07:25:29.708Z,4.43
2022-10-11T07:27:56.492Z,4.57
2022-10-11T07:30:22.966Z,4.43
2022-10-11T07:32:49.476Z,4.70
2022-10-11T07:35:16.025Z,5.47
2022-10-11T07:37:42.493Z,4.90
2022-10-11T07:40:09.012Z,5.83
2022-10-11T07:42:35.482Z,4.97
2022-10-11T07:45:02.028Z,5.07
2022-10-11T07:47:28.497Z,4.90
2022-10-11T07:49:54.990Z,5.67
2022-10-11T07:52:21.531Z,4.17
2022-10-11T07:54:48.044Z,4.63
2022-10-11T07:57:14.559Z,4.90
2022-10-11T07:59:41.099Z,4.80
2022-10-11T08:02:07.608Z,5.27
2022-10-11T08:04:34.113Z,4.10
2022-10-11T08:07:00.639Z,4.37
2022-10-11T08:09:27.185Z,4.60
2022-10-11T08:11:53.786Z,4.60
2022-10-11T08:14:39.037Z,4.87
2022-10-11T08:17:05.573Z,5.03
2022-10-11T08:19:32.105Z,5.37
2022-10-11T08:21:58.652Z,4.87
2022-10-11T08:24:25.160Z,5.10
2022-10-11T08:26:51.673Z,4.73
2022-10-11T08:29:18.309Z,5.37
2022-10-11T08:31:44.832Z,4.73
2022-10-11T08:34:11.345Z,5.00
2022-10-11T08:36:37.901Z,4.57
2022-10-11T08:39:04.463Z,5.10
2022-10-11T08:41:30.940Z,5.53
2022-10-11T08:44:16.295Z,5.60
2022-10-11T08:47:01.354Z,6.50
2022-10-11T08:49:46.390Z,7.43
2022-10-11T08:52:31.609Z,9.00
2022-10-11T08:54:58.210Z,8.90
2022-10-11T08:57:24.751Z,9.23
2022-10-11T08:59:51.280Z,8.77
2022-10-11T09:02:17.900Z,8.83
2022-10-11T09:04:44.745Z,9.37
2022-10-11T09:07:11.245Z,8.80
2022-10-11T09:09:37.882Z,9.40
2022-10-11T09:12:04.540Z,7.97
2022-10-11T09:14:31.073Z,8.40
2022-10-11T09:16:57.607Z,8.63
2022-10-11T09:19:24.233Z,9.30
2022-10-11T09:21:50.776Z,9.33
2022-10-11T09:24:17.636Z,9.00
2022-10-11T09:26:44.293Z,9.53
2022-10-11T09:29:18.889Z,10.57
2022-10-11T09:31:45.476Z,10.17
2022-10-11T09:34:12.088Z,9.80
2022-10-11T09:36:38.966Z,9.73
2022-10-11T09:39:06.787Z,11.03
2022-10-11T09:44:22.030Z,8.67
2022-10-11T09:46:50.101Z,9.20
2022-10-11T09:49:19.109Z,11.43
2022-10-11T09:51:53.646Z,11.23
2022-10-11T09:54:20.170Z,10.13
2022-10-11T09:56:46.658Z,8.83
2022-10-11T09:59:13.196Z,7.90
2022-10-11T10:01:40.084Z,6.80
2022-10-11T10:06:59.746Z,8.20
2022-10-11T10:09:28.980Z,7.20
2022-10-11T10:11:55.641Z,7.70
2022-10-11T10:14:31.347Z,7.60
2022-10-11T10:25:29.277Z,7.43
2022-10-11T10:28:14.501Z,6.80
2022-10-11T10:30:41.086Z,7.47
2022-10-11T10:33:07.746Z,7.53
2022-10-11T10:41:10.149Z,7.47
2022-10-11T10:43:36.671Z,6.60
2022-10-11T10:46:04.093Z,6.63
2022-10-11T10:48:46.949Z,7.00
2022-10-11T10:51:17.358Z,6.17
2022-10-11T10:53:43.991Z,6.60
2022-10-11T10:56:10.489Z,6.50
2022-10-11T10:58:37.005Z,5.60
2022-10-11T11:01:03.632Z,6.47
2022-10-11T11:03:30.149Z,6.03
2022-10-11T11:05:56.630Z,5.80
2022-10-11T11:08:23.564Z,5.93
2022-10-11T11:10:50.144Z,5.73
2022-10-11T11:13:16.786Z,5.43
2022-10-11T11:15:55.850Z,5.47
2022-10-11T11:18:22.402Z,6.00
2022-10-11T11:20:49.317Z,5.47
2022-10-11T11:23:15.902Z,5.73
2022-10-11T11:25:44.889Z,4.80
2022-10-11T11:28:11.704Z,5.13
2022-10-11T11:33:18.750Z,5.07
2022-10-11T11:35:45.234Z,4.53
2022-10-11T11:38:11.731Z,4.80
2022-10-11T11:43:18.686Z,5.13
2022-10-11T11:45:46.275Z,5.03
2022-10-11T11:56:31.411Z,5.00
2022-10-11T11:58:59.737Z,4.30
2022-10-11T12:01:30.942Z,4.67
2022-10-11T12:07:11.131Z,4.80
2022-10-11T12:13:13.190Z,4.50
2022-10-11T12:15:39.796Z,5.47
2022-10-11T12:18:06.349Z,5.30
2022-10-11T12:20:33.259Z,5.00
2022-10-11T12:23:00.613Z,5.17
2022-10-11T12:28:10.798Z,5.43
2022-10-11T12:30:38.938Z,4.43
2022-10-11T12:33:24.863Z,4.50
2022-10-11T12:36:10.920Z,4.50
2022-10-11T12:38:38.377Z,4.57
2022-10-11T12:41:05.491Z,4.50
2022-10-11T12:46:15.588Z,4.67
2022-10-11T12:48:54.900Z,4.33
2022-10-11T12:51:21.420Z,4.37
2022-10-11T12:54:02.310Z,4.43
2022-10-11T12:56:34.586Z,4.70
2022-10-11T12:59:01.117Z,5.70
2022-10-11T13:01:27.767Z,4.23
2022-10-11T13:03:54.361Z,4.83
2022-10-11T13:06:20.889Z,5.17
2022-10-11T13:08:47.418Z,4.23
2022-10-11T13:11:14.185Z,4.80
2022-10-11T13:13:40.716Z,4.10
2022-10-11T13:16:07.684Z,4.07
2022-10-11T13:18:34.576Z,4.90
2022-10-11T13:21:01.217Z,4.80
2022-10-11T13:23:27.744Z,4.30
2022-10-11T13:25:54.281Z,5.13
2022-10-11T13:28:20.841Z,4.23
2022-10-11T13:30:47.378Z,4.00
2022-10-11T13:33:13.917Z,4.07
2022-10-11T13:35:40.590Z,5.10
2022-10-11T13:38:07.113Z,4.87
2022-10-11T13:40:33.690Z,5.30
2022-10-11T13:43:00.246Z,4.50
2022-10-11T13:45:26.778Z,4.63
2022-10-11T13:47:53.317Z,4.57
2022-10-11T13:50:20.842Z,5.50
2022-10-11T13:52:47.346Z,5.77
2022-10-11T13:55:13.862Z,5.47
2022-10-11T13:57:40.485Z,5.07
2022-10-11T14:00:07.056Z,5.37
2022-10-11T14:02:33.583Z,5.27
2022-10-11T14:05:00.083Z,5.23
2022-10-11T14:07:26.730Z,5.20
2022-10-11T14:09:53.248Z,5.20
2022-10-11T14:12:19.752Z,5.67
2022-10-11T14:14:46.278Z,5.30
2022-10-11T14:17:12.927Z,5.37
2022-10-11T14:19:39.465Z,5.83
2022-10-11T14:22:06.016Z,5.30
2022-10-11T14:24:32.548Z,5.40
2022-10-11T14:26:59.025Z,5.87
2022-10-11T14:29:25.581Z,5.83
2022-10-11T14:31:52.107Z,5.20
2022-10-11T14:34:18.625Z,4.70
2022-10-11T14:36:45.161Z,5.50
2022-10-11T14:39:11.669Z,4.97
2022-10-11T14:41:38.173Z,5.13
2022-10-11T14:44:05.729Z,5.10
2022-10-11T14:46:32.249Z,6.13
2022-10-11T14:48:58.788Z,5.40
2022-10-11T14:51:25.359Z,4.67
2022-10-11T14:53:51.867Z,5.10
2022-10-11T14:56:21.453Z,5.43
2022-10-11T14:58:48.404Z,5.80
2022-10-11T15:01:14.923Z,5.70
2022-10-11T15:03:41.518Z,5.70
2022-10-11T15:06:08.448Z,5.37
2022-10-11T15:08:35.317Z,5.67
2022-10-11T15:11:08.478Z,4.97
2022-10-11T15:13:41.491Z,5.30
2022-10-11T15:16:08.297Z,5.77
2022-10-11T15:18:35.104Z,5.30
2022-10-11T15:21:01.620Z,6.13
2022-10-11T15:23:28.297Z,6.07
2022-10-11T15:25:54.812Z,5.97
2022-10-11T15:28:21.386Z,5.53
2022-10-11T15:30:47.894Z,5.80
2022-10-11T15:33:14.529Z,5.53
2022-10-11T15:35:41.037Z,6.40
2022-10-11T15:38:07.517Z,5.93
2022-10-11T15:40:34.389Z,5.60
2022-10-11T15:43:00.927Z,5.83
2022-10-11T15:45:27.444Z,5.70
2022-10-11T15:47:54.110Z,5.60
2022-10-11T15:50:20.639Z,6.40
2022-10-11T15:52:47.189Z,6.70
2022-10-11T15:55:13.674Z,6.87
2022-10-11T15:57:40.148Z,8.03
2022-10-11T16:00:06.722Z,8.27
2022-10-11T16:02:33.257Z,9.27
2022-10-11T16:04:59.834Z,9.03
2022-10-11T16:07:26.452Z,7.00
2022-10-11T16:09:52.949Z,6.73
2022-10-11T16:12:19.415Z,6.60
2022-10-11T16:14:47.303Z,6.70
2022-10-11T16:17:13.941Z,6.40
2022-10-11T16:19:40.551Z,6.37
2022-10-11T16:22:07.056Z,7.10
2022-10-11T16:24:33.545Z,7.63
2022-10-11T16:27:00.189Z,7.30
2022-10-11T16:29:26.689Z,9.50
2022-10-11T16:31:53.223Z,10.30
2022-10-11T16:34:19.806Z,11.87
2022-10-11T16:36:46.328Z,8.60
2022-10-11T16:39:12.807Z,9.27
2022-10-11T16:41:39.355Z,8.97
2022-10-11T16:44:05.879Z,10.40
2022-10-11T16:46:32.445Z,8.63
2022-10-11T16:48:58.982Z,8.63
2022-10-11T16:51:25.465Z,8.07
2022-10-11T16:53:52.116Z,8.37
2022-10-11T16:56:18.630Z,7.67
2022-10-11T16:58:45.270Z,8.37
2022-10-11T17:01:11.959Z,7.20
2022-10-11T17:03:38.628Z,7.23
2022-10-11T17:06:05.357Z,6.13
2022-10-11T17:08:32.104Z,7.20
2022-10-11T17:10:58.618Z,8.30
2022-10-11T17:13:25.144Z,8.60
2022-10-11T17:15:51.788Z,7.60
2022-10-11T17:18:18.296Z,7.40
2022-10-11T17:20:44.863Z,6.20
2022-10-11T17:23:11.527Z,6.27
2022-10-11T17:25:38.012Z,6.53
2022-10-11T17:28:04.553Z,6.47
2022-10-11T17:30:31.221Z,6.47
2022-10-11T17:35:38.126Z,6.73
2022-10-11T17:38:06.333Z,5.60
2022-10-11T17:40:33.073Z,6.00
2022-10-11T17:42:59.581Z,5.53
2022-10-11T17:45:26.191Z,6.63
2022-10-11T17:47:52.679Z,7.17
2022-10-11T17:50:19.326Z,6.13
2022-10-11T17:52:45.817Z,7.13
2022-10-11T17:55:12.312Z,6.70
2022-10-11T17:57:38.814Z,7.20
2022-10-11T18:00:05.367Z,6.37
2022-10-11T18:02:32.033Z,7.00
2022-10-11T18:04:58.509Z,6.77
2022-10-11T18:07:25.185Z,6.63
2022-10-11T18:09:51.734Z,7.03
2022-10-11T18:12:18.252Z,6.43
2022-10-11T18:14:44.812Z,7.03
2022-10-11T18:17:11.341Z,6.83
2022-10-11T18:19:37.821Z,7.10
2022-10-11T18:22:06.992Z,7.30
2022-10-11T18:24:33.803Z,9.60
2022-10-11T18:27:00.293Z,6.77
2022-10-11T18:29:26.832Z,6.80
2022-10-11T18:31:53.361Z,6.63
2022-10-11T18:34:19.890Z,7.47
2022-10-11T18:36:46.382Z,7.13
2022-10-11T18:39:12.911Z,8.97
2022-10-11T18:41:39.571Z,7.13
2022-10-11T18:44:06.086Z,7.00
2022-10-11T18:46:32.566Z,10.03
2022-10-11T18:48:59.122Z,9.93
2022-10-11T18:51:25.650Z,9.63
2022-10-11T18:53:52.280Z,8.63
2022-10-11T18:56:18.792Z,7.87
2022-10-11T18:58:45.278Z,7.40
2022-10-11T19:01:11.816Z,7.17
2022-10-11T19:03:38.587Z,7.20
2022-10-11T19:06:05.433Z,7.97
2022-10-11T19:08:32.191Z,7.47
2022-10-11T19:10:58.749Z,7.20
2022-10-11T19:13:25.236Z,10.00
2022-10-11T19:15:51.766Z,10.50
2022-10-11T19:18:20.591Z,7.57
2022-10-11T19:20:47.161Z,6.57
2022-10-11T19:23:13.657Z,7.00
2022-10-11T19:25:40.237Z,6.57
2022-10-11T19:28:06.813Z,6.30
2022-10-11T19:30:33.302Z,6.53
2022-10-11T19:32:59.836Z,6.37
2022-10-11T19:35:26.334Z,6.53
2022-10-11T19:37:52.826Z,6.10
2022-10-11T19:40:20.372Z,6.47
2022-10-11T19:42:46.859Z,6.40
2022-10-11T19:45:13.334Z,5.93
2022-10-11T19:47:39.965Z,6.37
2022-10-11T19:50:06.499Z,7.43
2022-10-11T19:52:33.460Z,7.07
2022-10-11T19:55:00.350Z,6.97
2022-10-11T19:57:26.870Z,7.00
2022-10-11T19:59:53.541Z,7.30
2022-10-11T20:02:20.164Z,7.60
2022-10-11T20:04:52.564Z,6.90
2022-10-11T20:07:19.655Z,6.73
2022-10-11T20:09:46.226Z,6.83
2022-10-11T20:12:12.769Z,6.83
2022-10-11T20:14:39.292Z,7.87
2022-10-11T20:17:05.972Z,8.20
2022-10-11T20:19:32.449Z,7.90
2022-10-11T20:21:58.929Z,7.00
2022-10-11T20:24:25.430Z,7.37
2022-10-11T20:26:51.904Z,7.00
2022-10-11T20:29:18.575Z,6.93
2022-10-11T20:31:45.070Z,6.63
2022-10-11T20:34:11.545Z,6.40
2022-10-11T20:36:38.084Z,6.80
2022-10-11T20:39:04.714Z,7.73
2022-10-11T20:41:31.273Z,7.60
2022-10-11T20:43:57.748Z,7.77
2022-10-11T20:46:24.230Z,7.23
2022-10-11T20:48:50.874Z,7.20
2022-10-11T20:51:17.358Z,7.30
2022-10-11T20:53:43.866Z,7.80
2022-10-11T20:56:10.349Z,7.53
2022-10-11T20:58:36.824Z,7.03
2022-10-11T21:01:03.391Z,7.00
2022-10-11T21:03:29.932Z,7.10
2022-10-11T21:05:56.411Z,6.60
2022-10-11T21:08:22.962Z,6.80
2022-10-11T21:10:49.518Z,7.03
2022-10-11T21:13:16.083Z,7.03
2022-10-11T21:15:42.692Z,7.03
2022-10-11T21:18:09.212Z,7.13
2022-10-11T21:20:35.842Z,7.70
2022-10-11T21:23:02.375Z,7.20
2022-10-11T21:25:28.862Z,7.13
2022-10-11T21:27:55.382Z,7.07
2022-10-11T21:30:21.906Z,9.93
2022-10-11T21:32:48.433Z,9.77
2022-10-11T21:35:14.994Z,6.90
2022-10-11T21:37:41.624Z,6.93
2022-10-11T21:40:08.134Z,7.07
2022-10-11T21:42:34.975Z,6.57
2022-10-11T21:45:01.819Z,8.47
2022-10-11T21:47:28.299Z,7.70
2022-10-11T21:49:54.780Z,6.97
2022-10-11T21:52:21.272Z,7.00
2022-10-11T21:54:47.825Z,8.30
2022-10-11T21:57:14.386Z,7.43
2022-10-11T21:59:41.018Z,8.50
2022-10-11T22:02:07.604Z,7.77
2022-10-11T22:04:35.157Z,7.33
2022-10-11T22:07:01.653Z,7.40
2022-10-11T22:09:28.140Z,8.33
2022-10-11T22:11:54.781Z,8.30
2022-10-11T22:14:21.341Z,8.63
2022-10-11T22:16:47.986Z,8.10
2022-10-11T22:19:14.465Z,8.63
2022-10-11T22:21:44.915Z,8.10
2022-10-11T22:24:11.760Z,8.50
2022-10-11T22:26:38.277Z,9.30
2022-10-11T22:29:04.913Z,9.10
2022-10-11T22:31:31.389Z,8.90
2022-10-11T22:33:57.912Z,8.00
2022-10-11T22:36:24.430Z,8.53
2022-10-11T22:38:50.961Z,8.27
2022-10-11T22:41:17.591Z,8.87
2022-10-11T22:43:44.170Z,8.30
2022-10-11T22:46:10.817Z,8.57
2022-10-11T22:48:37.306Z,8.20
2022-10-11T22:51:04.978Z,8.83
2022-10-11T22:53:31.490Z,8.43
2022-10-11T22:55:58.046Z,8.20
2022-10-11T22:58:24.556Z,9.43
2022-10-11T23:00:51.087Z,9.43
2022-10-11T23:03:17.771Z,9.73
2022-10-11T23:05:44.482Z,8.60
2022-10-11T23:08:11.125Z,9.10
2022-10-11T23:10:37.742Z,8.53
2022-10-11T23:13:04.266Z,8.77
2022-10-11T23:15:30.770Z,8.40
2022-10-11T23:18:06.670Z,8.60
2022-10-11T23:23:24.611Z,8.87
